sensor_id;sensor_type;location;lat;lon;timestamp;pressure;altitude;pressure_sealevel;temperature;humidity
81230;BME280;70701;44.452;18.652;2023-09-19T00:01:34;98819.47;;;22.00;73.40
81230;BME280;70701;44.452;18.652;2023-09-19T00:04:01;98818.16;;;22.01;73.56
81230;BME280;70701;44.452;18.652;2023-09-19T00:06:29;98804.78;;;22.02;73.41
81230;BME280;70701;44.452;18.652;2023-09-19T00:08:57;98798.56;;;22.03;73.55
81230;BME280;70701;44.452;18.652;2023-09-19T00:11:25;98792.94;;;21.92;73.52
81230;BME280;70701;44.452;18.652;2023-09-19T00:13:52;98798.34;;;21.90;74.18
81230;BME280;70701;44.452;18.652;2023-09-19T00:16:18;98795.03;;;21.86;74.24
81230;BME280;70701;44.452;18.652;2023-09-19T00:18:44;98795.84;;;21.69;74.97
81230;BME280;70701;44.452;18.652;2023-09-19T00:21:10;98792.50;;;21.60;75.25
81230;BME280;70701;44.452;18.652;2023-09-19T00:23:36;98789.16;;;21.61;75.40
81230;BME280;70701;44.452;18.652;2023-09-19T00:26:01;98784.19;;;21.84;74.26
81230;BME280;70701;44.452;18.652;2023-09-19T00:28:27;98789.88;;;21.84;74.41
81230;BME280;70701;44.452;18.652;2023-09-19T00:30:57;98771.31;;;21.89;74.06
81230;BME280;70701;44.452;18.652;2023-09-19T00:33:25;98776.47;;;21.90;73.81
81230;BME280;70701;44.452;18.652;2023-09-19T00:35:51;98782.59;;;22.00;73.57
81230;BME280;70701;44.452;18.652;2023-09-19T00:38:18;98769.22;;;21.89;73.61
81230;BME280;70701;44.452;18.652;2023-09-19T00:40:47;98768.72;;;21.91;73.85
81230;BME280;70701;44.452;18.652;2023-09-19T00:43:13;98765.59;;;22.00;73.56
81230;BME280;70701;44.452;18.652;2023-09-19T00:45:43;98776.69;;;21.98;73.85
81230;BME280;70701;44.452;18.652;2023-09-19T00:48:09;98786.03;;;21.76;74.92
81230;BME280;70701;44.452;18.652;2023-09-19T00:50:35;98773.44;;;21.66;75.28
81230;BME280;70701;44.452;18.652;2023-09-19T00:53:02;98768.59;;;21.49;75.91
81230;BME280;70701;44.452;18.652;2023-09-19T00:55:38;98778.34;;;21.43;75.81
81230;BME280;70701;44.452;18.652;2023-09-19T00:58:05;98773.47;;;21.54;75.64
81230;BME280;70701;44.452;18.652;2023-09-19T01:00:33;98774.53;;;21.46;76.16
81230;BME280;70701;44.452;18.652;2023-09-19T01:03:00;98760.59;;;21.48;75.85
81230;BME280;70701;44.452;18.652;2023-09-19T01:05:29;98760.59;;;21.36;76.26
81230;BME280;70701;44.452;18.652;2023-09-19T01:07:55;98770.63;;;21.38;76.25
81230;BME280;70701;44.452;18.652;2023-09-19T01:10:21;98765.78;;;21.15;77.23
81230;BME280;70701;44.452;18.652;2023-09-19T01:21:15;98751.28;;;21.64;75.27
81230;BME280;70701;44.452;18.652;2023-09-19T01:26:36;98755.22;;;21.44;76.16
81230;BME280;70701;44.452;18.652;2023-09-19T01:29:33;98764.97;;;21.43;76.30
81230;BME280;70701;44.452;18.652;2023-09-19T01:32:03;98766.53;;;21.44;75.93
81230;BME280;70701;44.452;18.652;2023-09-19T01:34:50;98757.53;;;21.46;76.24
81230;BME280;70701;44.452;18.652;2023-09-19T01:37:18;98756.22;;;21.41;76.26
81230;BME280;70701;44.452;18.652;2023-09-19T01:40:02;98760.38;;;21.29;76.66
81230;BME280;70701;44.452;18.652;2023-09-19T01:45:37;98769.38;;;21.33;76.61
81230;BME280;70701;44.452;18.652;2023-09-19T01:48:49;98771.19;;;21.30;76.83
81230;BME280;70701;44.452;18.652;2023-09-19T01:51:21;98768.88;;;21.29;76.86
81230;BME280;70701;44.452;18.652;2023-09-19T01:56:34;98768.63;;;21.27;77.19
81230;BME280;70701;44.452;18.652;2023-09-19T01:59:07;98759.59;;;21.17;77.24
81230;BME280;70701;44.452;18.652;2023-09-19T02:01:36;98757.28;;;21.21;77.20
81230;BME280;70701;44.452;18.652;2023-09-19T02:04:03;98758.84;;;20.83;78.64
81230;BME280;70701;44.452;18.652;2023-09-19T02:06:31;98760.41;;;20.84;78.55
81230;BME280;70701;44.452;18.652;2023-09-19T02:08:57;98764.25;;;20.81;78.74
81230;BME280;70701;44.452;18.652;2023-09-19T02:11:23;98757.03;;;20.85;78.27
81230;BME280;70701;44.452;18.652;2023-09-19T02:13:49;98759.34;;;20.75;78.54
81230;BME280;70701;44.452;18.652;2023-09-19T02:16:20;98767.56;;;20.62;79.42
81230;BME280;70701;44.452;18.652;2023-09-19T02:18:50;98767.28;;;20.49;80.09
81230;BME280;70701;44.452;18.652;2023-09-19T02:21:18;98759.56;;;20.49;79.85
81230;BME280;70701;44.452;18.652;2023-09-19T02:23:45;98763.41;;;20.41;80.07
81230;BME280;70701;44.452;18.652;2023-09-19T02:26:13;98756.22;;;20.56;79.09
81230;BME280;70701;44.452;18.652;2023-09-19T02:28:40;98753.88;;;20.38;79.69
81230;BME280;70701;44.452;18.652;2023-09-19T02:31:08;98756.50;;;20.64;78.37
81230;BME280;70701;44.452;18.652;2023-09-19T02:33:33;98756.25;;;20.85;77.80
81230;BME280;70701;44.452;18.652;2023-09-19T02:36:01;98758.06;;;20.82;77.60
81230;BME280;70701;44.452;18.652;2023-09-19T02:38:29;98754.47;;;20.70;78.04
81230;BME280;70701;44.452;18.652;2023-09-19T02:40:55;98766.53;;;20.59;78.93
81230;BME280;70701;44.452;18.652;2023-09-19T02:43:24;98767.53;;;20.56;78.67
81230;BME280;70701;44.452;18.652;2023-09-19T02:45:50;98773.19;;;20.51;79.17
81230;BME280;70701;44.452;18.652;2023-09-19T02:48:16;98773.97;;;20.57;78.77
81230;BME280;70701;44.452;18.652;2023-09-19T02:50:42;98759.09;;;20.68;77.88
81230;BME280;70701;44.452;18.652;2023-09-19T02:53:08;98770.16;;;20.94;76.94
81230;BME280;70701;44.452;18.652;2023-09-19T02:55:36;98765.00;;;21.04;76.49
81230;BME280;70701;44.452;18.652;2023-09-19T02:58:06;98768.09;;;21.06;76.45
81230;BME280;70701;44.452;18.652;2023-09-19T03:00:33;98752.16;;;21.03;76.85
81230;BME280;70701;44.452;18.652;2023-09-19T03:03:01;98761.41;;;20.92;77.64
81230;BME280;70701;44.452;18.652;2023-09-19T03:05:27;98753.44;;;20.90;77.54
81230;BME280;70701;44.452;18.652;2023-09-19T03:07:56;98762.44;;;20.83;78.08
81230;BME280;70701;44.452;18.652;2023-09-19T03:10:23;98761.16;;;20.84;78.05
81230;BME280;70701;44.452;18.652;2023-09-19T03:12:50;98763.22;;;20.67;78.50
81230;BME280;70701;44.452;18.652;2023-09-19T03:15:17;98771.03;;;20.12;81.15
81230;BME280;70701;44.452;18.652;2023-09-19T03:17:47;98763.63;;;20.20;80.95
81230;BME280;70701;44.452;18.652;2023-09-19T03:20:17;98765.41;;;20.29;80.33
81230;BME280;70701;44.452;18.652;2023-09-19T03:22:46;98776.69;;;20.12;80.96
81230;BME280;70701;44.452;18.652;2023-09-19T03:25:12;98775.69;;;20.20;80.82
81230;BME280;70701;44.452;18.652;2023-09-19T03:27:39;98775.97;;;20.28;80.55
81230;BME280;70701;44.452;18.652;2023-09-19T03:30:07;98786.75;;;20.24;80.78
81230;BME280;70701;44.452;18.652;2023-09-19T03:32:35;98778.56;;;20.37;80.50
81230;BME280;70701;44.452;18.652;2023-09-19T03:35:02;98771.66;;;20.55;79.36
81230;BME280;70701;44.452;18.652;2023-09-19T03:37:31;98767.84;;;20.75;78.53
81230;BME280;70701;44.452;18.652;2023-09-19T03:39:58;98775.06;;;20.71;78.37
81230;BME280;70701;44.452;18.652;2023-09-19T03:42:24;98784.78;;;20.58;78.89
81230;BME280;70701;44.452;18.652;2023-09-19T03:44:52;98780.16;;;20.50;79.27
81230;BME280;70701;44.452;18.652;2023-09-19T03:47:20;98775.50;;;20.41;79.41
81230;BME280;70701;44.452;18.652;2023-09-19T03:49:46;98782.94;;;20.33;79.88
81230;BME280;70701;44.452;18.652;2023-09-19T03:52:12;98784.16;;;20.15;80.44
81230;BME280;70701;44.452;18.652;2023-09-19T03:54:37;98778.28;;;20.30;79.71
81230;BME280;70701;44.452;18.652;2023-09-19T03:57:03;98781.84;;;20.13;80.31
81230;BME280;70701;44.452;18.652;2023-09-19T03:59:29;98786.91;;;19.92;81.67
81230;BME280;70701;44.452;18.652;2023-09-19T04:01:55;98779.22;;;19.98;81.48
81230;BME280;70701;44.452;18.652;2023-09-19T04:04:22;98776.66;;;20.06;80.94
81230;BME280;70701;44.452;18.652;2023-09-19T04:06:50;98783.34;;;19.97;80.96
81230;BME280;70701;44.452;18.652;2023-09-19T04:09:16;98780.97;;;19.90;80.56
81230;BME280;70701;44.452;18.652;2023-09-19T04:11:42;98777.88;;;19.83;81.14
81230;BME280;70701;44.452;18.652;2023-09-19T04:14:07;98767.59;;;19.85;80.51
81230;BME280;70701;44.452;18.652;2023-09-19T04:16:33;98775.31;;;19.85;80.28
81230;BME280;70701;44.452;18.652;2023-09-19T04:18:59;98768.59;;;19.76;80.33
81230;BME280;70701;44.452;18.652;2023-09-19T04:21:24;98769.19;;;19.92;80.34
81230;BME280;70701;44.452;18.652;2023-09-19T04:23:50;98769.66;;;19.85;80.11
81230;BME280;70701;44.452;18.652;2023-09-19T04:26:16;98778.16;;;19.90;79.73
81230;BME280;70701;44.452;18.652;2023-09-19T04:28:42;98781.81;;;20.08;79.49
81230;BME280;70701;44.452;18.652;2023-09-19T04:31:09;98776.94;;;20.14;78.94
81230;BME280;70701;44.452;18.652;2023-09-19T04:33:37;98781.34;;;20.20;78.49
81230;BME280;70701;44.452;18.652;2023-09-19T04:36:03;98785.19;;;20.17;78.13
81230;BME280;70701;44.452;18.652;2023-09-19T04:38:31;98799.56;;;20.14;78.13
81230;BME280;70701;44.452;18.652;2023-09-19T04:40:57;98793.88;;;20.03;78.27
81230;BME280;70701;44.452;18.652;2023-09-19T04:43:25;98783.56;;;19.94;78.71
81230;BME280;70701;44.452;18.652;2023-09-19T04:45:50;98790.56;;;20.10;78.77
81230;BME280;70701;44.452;18.652;2023-09-19T04:48:19;98798.81;;;20.19;78.54
81230;BME280;70701;44.452;18.652;2023-09-19T04:50:45;98790.56;;;20.15;78.29
81230;BME280;70701;44.452;18.652;2023-09-19T04:53:10;98799.13;;;20.32;78.04
81230;BME280;70701;44.452;18.652;2023-09-19T04:55:36;98790.25;;;19.96;78.82
81230;BME280;70701;44.452;18.652;2023-09-19T04:58:02;98794.16;;;20.05;79.29
81230;BME280;70701;44.452;18.652;2023-09-19T05:00:28;98801.16;;;20.26;78.41
81230;BME280;70701;44.452;18.652;2023-09-19T05:02:56;98796.78;;;20.25;78.98
81230;BME280;70701;44.452;18.652;2023-09-19T05:05:22;98784.88;;;19.98;80.02
81230;BME280;70701;44.452;18.652;2023-09-19T05:07:49;98790.75;;;19.95;79.73
81230;BME280;70701;44.452;18.652;2023-09-19T05:10:16;98791.00;;;19.91;79.59
81230;BME280;70701;44.452;18.652;2023-09-19T05:12:43;98779.22;;;19.98;79.10
81230;BME280;70701;44.452;18.652;2023-09-19T05:15:11;98801.81;;;19.98;79.55
81230;BME280;70701;44.452;18.652;2023-09-19T05:17:37;98797.41;;;19.86;80.16
81230;BME280;70701;44.452;18.652;2023-09-19T05:20:04;98804.84;;;19.84;80.17
81230;BME280;70701;44.452;18.652;2023-09-19T05:22:39;98802.03;;;19.89;79.48
81230;BME280;70701;44.452;18.652;2023-09-19T05:25:06;98800.34;;;20.09;78.67
81230;BME280;70701;44.452;18.652;2023-09-19T05:27:32;98805.69;;;19.95;79.44
81230;BME280;70701;44.452;18.652;2023-09-19T05:29:59;98808.56;;;20.12;78.80
81230;BME280;70701;44.452;18.652;2023-09-19T05:32:25;98820.50;;;20.39;77.62
81230;BME280;70701;44.452;18.652;2023-09-19T05:34:50;98824.84;;;20.40;76.52
81230;BME280;70701;44.452;18.652;2023-09-19T05:37:19;98816.31;;;20.29;77.05
81230;BME280;70701;44.452;18.652;2023-09-19T05:39:45;98816.88;;;20.33;76.93
81230;BME280;70701;44.452;18.652;2023-09-19T05:42:10;98829.91;;;20.13;77.95
81230;BME280;70701;44.452;18.652;2023-09-19T05:44:36;98816.09;;;20.32;77.33
81230;BME280;70701;44.452;18.652;2023-09-19T05:47:03;98825.91;;;20.48;77.00
81230;BME280;70701;44.452;18.652;2023-09-19T05:49:28;98819.72;;;20.38;77.21
81230;BME280;70701;44.452;18.652;2023-09-19T05:51:54;98801.66;;;20.25;77.71
81230;BME280;70701;44.452;18.652;2023-09-19T05:54:24;98811.75;;;20.37;77.83
81230;BME280;70701;44.452;18.652;2023-09-19T05:56:49;98807.59;;;20.27;78.54
81230;BME280;70701;44.452;18.652;2023-09-19T05:59:19;98798.56;;;20.23;79.17
81230;BME280;70701;44.452;18.652;2023-09-19T06:01:44;98800.13;;;20.24;79.07
81230;BME280;70701;44.452;18.652;2023-09-19T06:04:12;98798.66;;;20.51;78.09
81230;BME280;70701;44.452;18.652;2023-09-19T06:06:38;98798.63;;;20.39;78.62
81230;BME280;70701;44.452;18.652;2023-09-19T06:09:06;98794.31;;;20.55;78.37
81230;BME280;70701;44.452;18.652;2023-09-19T06:11:34;98801.81;;;20.81;77.16
81230;BME280;70701;44.452;18.652;2023-09-19T06:14:01;98791.53;;;21.12;76.01
81230;BME280;70701;44.452;18.652;2023-09-19T06:16:30;98798.72;;;21.30;75.56
81230;BME280;70701;44.452;18.652;2023-09-19T06:18:57;98799.75;;;21.49;74.85
81230;BME280;70701;44.452;18.652;2023-09-19T06:21:26;98811.09;;;21.44;75.21
81230;BME280;70701;44.452;18.652;2023-09-19T06:23:52;98813.38;;;21.51;74.80
81230;BME280;70701;44.452;18.652;2023-09-19T06:26:18;98808.50;;;21.63;74.68
81230;BME280;70701;44.452;18.652;2023-09-19T06:28:44;98819.50;;;21.89;73.47
81230;BME280;70701;44.452;18.652;2023-09-19T06:31:10;98816.38;;;22.04;73.11
81230;BME280;70701;44.452;18.652;2023-09-19T06:33:36;98815.53;;;22.14;73.17
81230;BME280;70701;44.452;18.652;2023-09-19T06:36:05;98816.03;;;22.24;72.98
81230;BME280;70701;44.452;18.652;2023-09-19T06:38:31;98826.06;;;22.31;72.55
81230;BME280;70701;44.452;18.652;2023-09-19T06:40:59;98830.91;;;22.42;71.84
81230;BME280;70701;44.452;18.652;2023-09-19T06:43:27;98821.03;;;22.54;71.04
81230;BME280;70701;44.452;18.652;2023-09-19T06:45:55;98820.41;;;22.73;70.76
81230;BME280;70701;44.452;18.652;2023-09-19T06:48:21;98820.41;;;22.73;70.83
81230;BME280;70701;44.452;18.652;2023-09-19T06:50:47;98826.56;;;22.77;70.35
81230;BME280;70701;44.452;18.652;2023-09-19T06:53:15;98835.31;;;22.84;69.98
81230;BME280;70701;44.452;18.652;2023-09-19T06:55:42;98831.56;;;23.01;69.68
81230;BME280;70701;44.452;18.652;2023-09-19T06:58:09;98830.22;;;23.13;68.90
81230;BME280;70701;44.452;18.652;2023-09-19T07:00:36;98838.66;;;23.24;68.95
81230;BME280;70701;44.452;18.652;2023-09-19T07:03:05;98830.41;;;23.21;68.62
81230;BME280;70701;44.452;18.652;2023-09-19T07:05:34;98841.88;;;23.40;68.05
81230;BME280;70701;44.452;18.652;2023-09-19T07:08:05;98834.16;;;23.35;67.72
81230;BME280;70701;44.452;18.652;2023-09-19T07:10:32;98839.78;;;23.40;67.77
81230;BME280;70701;44.452;18.652;2023-09-19T07:13:05;98842.81;;;23.48;67.14
81230;BME280;70701;44.452;18.652;2023-09-19T07:15:38;98849.09;;;23.41;67.47
81230;BME280;70701;44.452;18.652;2023-09-19T07:18:06;98851.91;;;23.46;67.14
81230;BME280;70701;44.452;18.652;2023-09-19T07:20:32;98852.66;;;23.47;66.95
81230;BME280;70701;44.452;18.652;2023-09-19T07:22:58;98860.94;;;23.45;66.55
81230;BME280;70701;44.452;18.652;2023-09-19T07:25:28;98857.81;;;23.48;66.27
81230;BME280;70701;44.452;18.652;2023-09-19T07:27:57;98857.03;;;23.48;66.06
81230;BME280;70701;44.452;18.652;2023-09-19T07:30:25;98867.72;;;23.66;65.74
81230;BME280;70701;44.452;18.652;2023-09-19T07:32:52;98871.31;;;23.97;64.90
81230;BME280;70701;44.452;18.652;2023-09-19T07:35:19;98866.41;;;23.98;64.25
81230;BME280;70701;44.452;18.652;2023-09-19T07:37:48;98873.75;;;24.12;63.99
81230;BME280;70701;44.452;18.652;2023-09-19T07:40:15;98872.94;;;24.12;63.29
81230;BME280;70701;44.452;18.652;2023-09-19T07:42:41;98876.69;;;24.25;62.99
81230;BME280;70701;44.452;18.652;2023-09-19T07:45:08;98884.41;;;24.31;62.57
81230;BME280;70701;44.452;18.652;2023-09-19T07:47:34;98873.59;;;24.23;62.88
81230;BME280;70701;44.452;18.652;2023-09-19T07:50:01;98880.31;;;24.45;62.55
81230;BME280;70701;44.452;18.652;2023-09-19T07:52:29;98881.31;;;24.53;62.61
81230;BME280;70701;44.452;18.652;2023-09-19T07:54:55;98879.22;;;24.54;62.62
81230;BME280;70701;44.452;18.652;2023-09-19T07:57:23;98880.06;;;24.68;62.48
81230;BME280;70701;44.452;18.652;2023-09-19T07:59:49;98882.66;;;24.66;60.85
81230;BME280;70701;44.452;18.652;2023-09-19T08:02:14;98877.59;;;24.58;60.61
81230;BME280;70701;44.452;18.652;2023-09-19T08:04:44;98871.34;;;24.60;60.33
81230;BME280;70701;44.452;18.652;2023-09-19T08:07:12;98868.66;;;24.68;59.51
81230;BME280;70701;44.452;18.652;2023-09-19T08:09:41;98868.47;;;24.98;59.16
81230;BME280;70701;44.452;18.652;2023-09-19T08:12:07;98868.34;;;25.22;58.41
81230;BME280;70701;44.452;18.652;2023-09-19T08:14:36;98874.81;;;25.42;58.01
81230;BME280;70701;44.452;18.652;2023-09-19T08:17:03;98873.88;;;25.53;58.34
81230;BME280;70701;44.452;18.652;2023-09-19T08:19:31;98870.66;;;25.43;58.96
81230;BME280;70701;44.452;18.652;2023-09-19T08:21:58;98881.81;;;25.41;59.23
81230;BME280;70701;44.452;18.652;2023-09-19T08:24:27;98879.91;;;25.63;57.78
81230;BME280;70701;44.452;18.652;2023-09-19T08:26:54;98877.41;;;25.86;57.62
81230;BME280;70701;44.452;18.652;2023-09-19T08:29:21;98881.97;;;26.08;56.57
81230;BME280;70701;44.452;18.652;2023-09-19T08:31:56;98882.84;;;26.16;55.87
81230;BME280;70701;44.452;18.652;2023-09-19T08:34:23;98877.44;;;26.26;55.96
81230;BME280;70701;44.452;18.652;2023-09-19T08:36:53;98880.44;;;26.33;55.52
81230;BME280;70701;44.452;18.652;2023-09-19T08:39:22;98879.19;;;26.42;55.25
81230;BME280;70701;44.452;18.652;2023-09-19T08:41:48;98883.38;;;26.54;54.76
81230;BME280;70701;44.452;18.652;2023-09-19T08:44:15;98872.94;;;26.44;53.87
81230;BME280;70701;44.452;18.652;2023-09-19T08:46:41;98882.06;;;26.42;53.65
81230;BME280;70701;44.452;18.652;2023-09-19T08:49:40;98885.09;;;26.57;54.06
81230;BME280;70701;44.452;18.652;2023-09-19T08:52:16;98881.69;;;26.72;52.19
81230;BME280;70701;44.452;18.652;2023-09-19T08:54:48;98868.75;;;26.58;52.81
81230;BME280;70701;44.452;18.652;2023-09-19T08:57:15;98877.84;;;26.70;53.07
81230;BME280;70701;44.452;18.652;2023-09-19T08:59:48;98869.31;;;26.91;52.17
81230;BME280;70701;44.452;18.652;2023-09-19T09:02:15;98868.88;;;27.00;53.00
81230;BME280;70701;44.452;18.652;2023-09-19T09:04:43;98870.19;;;26.99;53.77
81230;BME280;70701;44.452;18.652;2023-09-19T09:07:12;98858.50;;;27.10;53.25
81230;BME280;70701;44.452;18.652;2023-09-19T09:09:39;98856.44;;;27.32;52.56
81230;BME280;70701;44.452;18.652;2023-09-19T09:12:12;98851.59;;;27.48;51.88
81230;BME280;70701;44.452;18.652;2023-09-19T09:14:45;98847.88;;;27.61;51.30
81230;BME280;70701;44.452;18.652;2023-09-19T09:17:16;98835.38;;;27.71;50.15
81230;BME280;70701;44.452;18.652;2023-09-19T09:19:48;98843.88;;;27.85;49.40
81230;BME280;70701;44.452;18.652;2023-09-19T09:22:14;98836.84;;;27.86;48.36
81230;BME280;70701;44.452;18.652;2023-09-19T09:24:55;98840.09;;;28.19;47.29
81230;BME280;70701;44.452;18.652;2023-09-19T09:27:24;98834.44;;;27.98;48.57
81230;BME280;70701;44.452;18.652;2023-09-19T09:29:51;98838.47;;;28.02;47.63
81230;BME280;70701;44.452;18.652;2023-09-19T09:34:55;98828.69;;;28.26;46.32
81230;BME280;70701;44.452;18.652;2023-09-19T09:37:21;98830.25;;;28.35;46.59
81230;BME280;70701;44.452;18.652;2023-09-19T09:39:50;98826.13;;;28.52;46.21
81230;BME280;70701;44.452;18.652;2023-09-19T09:42:35;98826.78;;;28.73;45.09
81230;BME280;70701;44.452;18.652;2023-09-19T09:45:23;98826.81;;;28.37;41.02
81230;BME280;70701;44.452;18.652;2023-09-19T09:47:58;98822.84;;;29.07;37.71
81230;BME280;70701;44.452;18.652;2023-09-19T09:50:28;98822.13;;;29.37;35.80
81230;BME280;70701;44.452;18.652;2023-09-19T09:53:27;98827.47;;;29.41;36.56
81230;BME280;70701;44.452;18.652;2023-09-19T09:58:28;98816.69;;;28.80;38.77
81230;BME280;70701;44.452;18.652;2023-09-19T10:01:00;98821.25;;;28.83;37.74
81230;BME280;70701;44.452;18.652;2023-09-19T10:03:39;98812.28;;;28.94;37.00
81230;BME280;70701;44.452;18.652;2023-09-19T10:06:10;98822.88;;;29.22;35.67
81230;BME280;70701;44.452;18.652;2023-09-19T10:09:05;98821.88;;;29.04;36.36
81230;BME280;70701;44.452;18.652;2023-09-19T10:11:48;98813.25;;;28.89;36.54
81230;BME280;70701;44.452;18.652;2023-09-19T10:14:25;98818.25;;;28.96;36.88
81230;BME280;70701;44.452;18.652;2023-09-19T10:16:56;98810.22;;;28.95;37.32
81230;BME280;70701;44.452;18.652;2023-09-19T10:19:42;98804.13;;;29.06;37.00
81230;BME280;70701;44.452;18.652;2023-09-19T10:22:12;98797.22;;;29.01;36.83
81230;BME280;70701;44.452;18.652;2023-09-19T10:24:40;98798.19;;;28.96;36.84
81230;BME280;70701;44.452;18.652;2023-09-19T10:27:06;98806.41;;;29.07;36.50
81230;BME280;70701;44.452;18.652;2023-09-19T10:29:36;98795.16;;;29.17;36.88
81230;BME280;70701;44.452;18.652;2023-09-19T10:32:05;98798.38;;;28.91;36.78
81230;BME280;70701;44.452;18.652;2023-09-19T10:34:38;98805.69;;;29.45;35.61
81230;BME280;70701;44.452;18.652;2023-09-19T10:37:07;98798.78;;;29.25;35.68
81230;BME280;70701;44.452;18.652;2023-09-19T10:39:35;98788.84;;;29.50;35.80
81230;BME280;70701;44.452;18.652;2023-09-19T10:42:06;98783.31;;;29.44;35.22
81230;BME280;70701;44.452;18.652;2023-09-19T10:44:37;98784.06;;;29.37;35.35
81230;BME280;70701;44.452;18.652;2023-09-19T10:47:09;98780.97;;;29.58;35.14
81230;BME280;70701;44.452;18.652;2023-09-19T10:49:35;98776.78;;;29.66;35.02
81230;BME280;70701;44.452;18.652;2023-09-19T10:52:01;98782.72;;;29.45;34.92
81230;BME280;70701;44.452;18.652;2023-09-19T10:54:31;98772.75;;;29.70;35.20
81230;BME280;70701;44.452;18.652;2023-09-19T10:57:00;98772.38;;;29.58;35.02
81230;BME280;70701;44.452;18.652;2023-09-19T10:59:26;98764.53;;;29.66;34.86
81230;BME280;70701;44.452;18.652;2023-09-19T11:02:15;98756.69;;;29.74;35.19
81230;BME280;70701;44.452;18.652;2023-09-19T11:04:42;98754.19;;;29.78;34.97
81230;BME280;70701;44.452;18.652;2023-09-19T11:07:12;98751.50;;;29.80;34.67
81230;BME280;70701;44.452;18.652;2023-09-19T11:09:49;98751.69;;;29.82;34.89
81230;BME280;70701;44.452;18.652;2023-09-19T11:14:57;98739.22;;;29.95;35.47
81230;BME280;70701;44.452;18.652;2023-09-19T11:30:34;98746.38;;;29.48;36.29
81230;BME280;70701;44.452;18.652;2023-09-19T11:33:19;98741.06;;;29.14;36.84
81230;BME280;70701;44.452;18.652;2023-09-19T11:49:16;98779.91;;;26.83;47.75
81230;BME280;70701;44.452;18.652;2023-09-19T11:51:46;98795.16;;;26.51;49.12
81230;BME280;70701;44.452;18.652;2023-09-19T11:54:14;98813.97;;;26.33;49.14
81230;BME280;70701;44.452;18.652;2023-09-19T11:56:44;98815.78;;;26.09;50.06
81230;BME280;70701;44.452;18.652;2023-09-19T11:59:11;98853.44;;;25.94;50.03
81230;BME280;70701;44.452;18.652;2023-09-19T12:01:38;98863.69;;;25.84;50.72
81230;BME280;70701;44.452;18.652;2023-09-19T12:04:10;98874.56;;;25.72;52.87
81230;BME280;70701;44.452;18.652;2023-09-19T12:06:40;98859.19;;;25.62;55.44
81230;BME280;70701;44.452;18.652;2023-09-19T12:09:12;98855.44;;;25.54;56.68
81230;BME280;70701;44.452;18.652;2023-09-19T12:11:42;98845.91;;;25.51;nan
81230;BME280;70701;44.452;18.652;2023-09-19T12:14:11;98840.84;;;25.44;59.34
81230;BME280;70701;44.452;18.652;2023-09-19T12:16:37;98835.31;;;25.33;59.91
81230;BME280;70701;44.452;18.652;2023-09-19T12:19:20;98832.47;;;25.33;58.72
81230;BME280;70701;44.452;18.652;2023-09-19T12:22:13;98862.25;;;24.99;59.40
81230;BME280;70701;44.452;18.652;2023-09-19T12:24:40;98859.50;;;24.75;60.90
81230;BME280;70701;44.452;18.652;2023-09-19T12:27:09;98872.19;;;24.93;60.19
81230;BME280;70701;44.452;18.652;2023-09-19T12:29:44;98884.28;;;24.80;60.49
81230;BME280;70701;44.452;18.652;2023-09-19T12:32:10;98892.31;;;24.81;60.06
81230;BME280;70701;44.452;18.652;2023-09-19T12:34:36;98902.59;;;24.66;61.32
81230;BME280;70701;44.452;18.652;2023-09-19T12:37:14;98915.06;;;24.38;63.35
81230;BME280;70701;44.452;18.652;2023-09-19T12:39:51;98915.28;;;23.96;64.40
81230;BME280;70701;44.452;18.652;2023-09-19T12:42:25;98937.94;;;23.77;66.28
81230;BME280;70701;44.452;18.652;2023-09-19T12:45:01;98940.53;;;23.75;66.62
81230;BME280;70701;44.452;18.652;2023-09-19T12:47:28;98939.88;;;23.94;66.86
81230;BME280;70701;44.452;18.652;2023-09-19T12:50:14;98928.09;;;23.84;66.95
81230;BME280;70701;44.452;18.652;2023-09-19T12:52:47;98918.75;;;23.83;67.35
81230;BME280;70701;44.452;18.652;2023-09-19T12:55:40;98925.88;;;23.65;68.21
81230;BME280;70701;44.452;18.652;2023-09-19T12:58:14;98921.41;;;23.76;69.45
81230;BME280;70701;44.452;18.652;2023-09-19T13:00:45;98926.06;;;23.79;69.39
81230;BME280;70701;44.452;18.652;2023-09-19T13:05:56;98930.13;;;23.53;70.11
81230;BME280;70701;44.452;18.652;2023-09-19T13:08:26;98945.72;;;22.99;72.38
81230;BME280;70701;44.452;18.652;2023-09-19T13:11:16;98935.16;;;22.94;73.05
81230;BME280;70701;44.452;18.652;2023-09-19T13:17:01;98931.59;;;23.29;71.87
81230;BME280;70701;44.452;18.652;2023-09-19T13:22:40;98920.97;;;23.66;70.30
81230;BME280;70701;44.452;18.652;2023-09-19T13:25:20;98919.06;;;23.80;69.93
81230;BME280;70701;44.452;18.652;2023-09-19T13:27:51;98930.94;;;23.84;70.28
81230;BME280;70701;44.452;18.652;2023-09-19T13:30:18;98938.28;;;23.98;69.64
81230;BME280;70701;44.452;18.652;2023-09-19T13:32:44;98937.81;;;24.19;69.06
81230;BME280;70701;44.452;18.652;2023-09-19T13:35:13;98928.84;;;24.09;69.10
81230;BME280;70701;44.452;18.652;2023-09-19T13:37:41;98939.53;;;24.03;69.04
81230;BME280;70701;44.452;18.652;2023-09-19T13:40:08;98951.81;;;23.56;70.06
81230;BME280;70701;44.452;18.652;2023-09-19T13:42:34;98953.44;;;23.46;70.71
81230;BME280;70701;44.452;18.652;2023-09-19T13:45:02;98958.88;;;23.44;71.03
81230;BME280;70701;44.452;18.652;2023-09-19T13:47:30;98936.63;;;23.84;69.42
81230;BME280;70701;44.452;18.652;2023-09-19T13:49:56;98947.91;;;24.20;67.77
81230;BME280;70701;44.452;18.652;2023-09-19T13:52:22;98949.66;;;24.48;66.59
81230;BME280;70701;44.452;18.652;2023-09-19T13:54:51;98947.34;;;24.90;64.77
81230;BME280;70701;44.452;18.652;2023-09-19T13:57:18;98938.31;;;25.05;64.93
81230;BME280;70701;44.452;18.652;2023-09-19T13:59:44;98944.22;;;25.45;63.76
81230;BME280;70701;44.452;18.652;2023-09-19T14:02:09;98958.66;;;25.66;63.20